createdAt,value
2023-03-11T00:01:43.519Z,91.60
2023-03-11T00:03:36.539Z,91.48
2023-03-11T00:05:34.515Z,91.45
2023-03-11T00:07:27.661Z,91.66
2023-03-11T00:09:20.607Z,91.60
2023-03-11T00:11:13.659Z,91.60
2023-03-11T00:13:08.554Z,91.57
2023-03-11T00:15:01.605Z,91.50
2023-03-11T00:16:54.754Z,91.59
2023-03-11T00:18:51.775Z,91.52
2023-03-11T00:20:46.927Z,91.56
2023-03-11T00:22:39.949Z,91.56
2023-03-11T00:24:34.029Z,91.60
2023-03-11T00:26:27.533Z,91.49
2023-03-11T00:28:22.484Z,91.57
2023-03-11T00:30:17.547Z,91.61
2023-03-11T00:32:10.528Z,91.51
2023-03-11T00:34:03.707Z,91.62
2023-03-11T00:35:57.231Z,91.58
2023-03-11T00:37:54.718Z,91.68
2023-03-11T00:39:48.065Z,91.71
2023-03-11T00:41:40.974Z,91.78
2023-03-11T00:43:34.356Z,91.77
2023-03-11T00:45:29.108Z,91.89
2023-03-11T00:47:22.202Z,91.90
2023-03-11T00:49:15.250Z,91.89
2023-03-11T00:51:13.806Z,91.77
2023-03-11T00:53:07.077Z,91.75
2023-03-11T00:55:00.233Z,91.69
2023-03-11T00:56:53.393Z,91.82
2023-03-11T00:58:46.546Z,91.81
2023-03-11T01:00:40.309Z,91.85
2023-03-11T01:02:35.408Z,91.85
2023-03-11T01:04:28.512Z,91.83
2023-03-11T01:06:22.490Z,91.82
2023-03-11T01:08:15.545Z,91.78
2023-03-11T01:10:09.911Z,91.90
2023-03-11T01:12:03.015Z,91.68
2023-03-11T01:13:56.170Z,91.78
2023-03-11T01:15:49.229Z,91.78
2023-03-11T01:17:42.479Z,91.88
2023-03-11T01:19:36.243Z,91.74
2023-03-11T01:21:29.297Z,91.80
2023-03-11T01:23:23.062Z,91.75
2023-03-11T01:25:18.264Z,91.63
2023-03-11T01:27:11.338Z,91.80
2023-03-11T01:29:04.365Z,91.89
2023-03-11T01:30:57.438Z,91.79
2023-03-11T01:32:52.181Z,91.84
2023-03-11T01:34:45.356Z,91.85
2023-03-11T01:36:38.827Z,91.97
2023-03-11T01:38:32.180Z,91.85
2023-03-11T01:40:54.510Z,91.82
2023-03-11T01:42:47.970Z,91.84
2023-03-11T01:44:41.227Z,91.86
2023-03-11T01:47:00.188Z,92.04
2023-03-11T01:49:02.802Z,91.96
2023-03-11T01:50:58.877Z,92.16
2023-03-11T01:52:52.037Z,92.00
2023-03-11T01:54:45.091Z,91.97
2023-03-11T01:56:41.366Z,92.14
2023-03-11T01:58:41.711Z,92.12
2023-03-11T02:00:36.624Z,92.20
2023-03-11T02:02:36.045Z,92.11
2023-03-11T02:04:29.553Z,92.24
2023-03-11T02:06:23.927Z,92.03
2023-03-11T02:08:17.632Z,92.07
2023-03-11T02:10:13.545Z,92.28
2023-03-11T02:12:09.668Z,92.12
2023-03-11T02:14:06.659Z,92.28
2023-03-11T02:16:00.775Z,92.29
2023-03-11T02:17:56.512Z,92.16
2023-03-11T02:20:16.696Z,92.26
2023-03-11T02:22:11.601Z,92.32
2023-03-11T02:24:18.879Z,92.36
2023-03-11T02:26:33.536Z,92.37
2023-03-11T02:28:28.020Z,92.37
2023-03-11T02:30:23.936Z,92.53
2023-03-11T02:32:18.706Z,92.46
2023-03-11T02:34:25.625Z,92.35
2023-03-11T02:36:37.726Z,92.55
2023-03-11T02:38:31.161Z,92.46
2023-03-11T02:40:24.430Z,92.34
2023-03-11T02:42:28.016Z,92.57
2023-03-11T02:44:21.372Z,92.63
2023-03-11T02:46:15.447Z,92.67
2023-03-11T02:48:12.062Z,92.58
2023-03-11T02:50:06.712Z,92.57
2023-03-11T02:51:59.713Z,92.64
2023-03-11T02:54:00.036Z,92.52
2023-03-11T02:55:54.517Z,92.61
2023-03-11T02:57:48.393Z,92.49
2023-03-11T02:59:41.314Z,92.64
2023-03-11T03:01:34.999Z,92.67
2023-03-11T03:03:28.057Z,92.76
2023-03-11T03:05:22.748Z,92.67
2023-03-11T03:07:15.843Z,92.76
2023-03-11T03:09:08.843Z,92.67
2023-03-11T03:11:03.534Z,92.69
2023-03-11T03:12:56.596Z,92.73
2023-03-11T03:14:49.629Z,92.83
2023-03-11T03:16:42.910Z,92.79
2023-03-11T03:18:36.243Z,92.86
2023-03-11T03:20:29.296Z,92.87
2023-03-11T03:22:27.601Z,92.90
2023-03-11T03:24:21.639Z,92.93
2023-03-11T03:26:14.899Z,92.76
2023-03-11T03:28:08.984Z,92.71
2023-03-11T03:30:04.884Z,92.59
2023-03-11T03:31:58.736Z,92.31
2023-03-11T03:33:52.746Z,91.01
2023-03-11T03:35:46.413Z,90.23
2023-03-11T03:37:46.317Z,90.41
2023-03-11T03:39:39.682Z,89.88
2023-03-11T03:41:33.738Z,89.18
2023-03-11T03:43:27.319Z,88.83
2023-03-11T03:45:20.669Z,88.52
2023-03-11T03:47:14.225Z,88.47
2023-03-11T03:49:07.273Z,88.61
2023-03-11T03:51:09.169Z,88.67
2023-03-11T03:53:03.411Z,88.85
2023-03-11T03:54:56.464Z,88.85
2023-03-11T03:56:49.613Z,88.36
2023-03-11T03:58:43.386Z,88.02
2023-03-11T04:00:36.739Z,88.23
2023-03-11T04:02:29.902Z,88.30
2023-03-11T04:04:23.254Z,88.37
2023-03-11T04:06:24.499Z,88.47
2023-03-11T04:08:21.925Z,88.57
2023-03-11T04:10:16.185Z,88.34
2023-03-11T04:12:17.676Z,88.55
2023-03-11T04:14:10.933Z,88.55
2023-03-11T04:16:08.326Z,88.36
2023-03-11T04:18:01.537Z,88.32
2023-03-11T04:19:54.899Z,88.44
2023-03-11T04:21:47.846Z,88.20
2023-03-11T04:23:41.519Z,88.13
2023-03-11T04:25:35.485Z,87.81
2023-03-11T04:27:29.047Z,88.00
2023-03-11T04:29:22.299Z,87.92
2023-03-11T04:31:17.188Z,87.94
2023-03-11T04:33:10.241Z,87.70
2023-03-11T04:35:05.136Z,87.57
2023-03-11T04:36:58.593Z,87.45
2023-03-11T04:38:57.176Z,87.58
2023-03-11T04:40:51.348Z,87.74
2023-03-11T04:42:44.359Z,87.86
2023-03-11T04:44:37.655Z,87.84
2023-03-11T04:46:31.574Z,87.88
2023-03-11T04:48:27.215Z,87.78
2023-03-11T04:50:21.516Z,87.88
2023-03-11T04:52:14.568Z,87.99
2023-03-11T04:54:07.921Z,88.11
2023-03-11T04:56:00.976Z,88.22
2023-03-11T04:57:54.289Z,88.49
2023-03-11T04:59:47.999Z,88.53
2023-03-11T05:01:41.258Z,88.46
2023-03-11T05:03:34.937Z,88.70
2023-03-11T05:05:27.967Z,88.75
2023-03-11T05:07:21.020Z,88.62
2023-03-11T05:09:14.478Z,88.63
2023-03-11T05:11:08.959Z,88.53
2023-03-11T05:13:02.526Z,88.81
2023-03-11T05:14:58.238Z,88.95
2023-03-11T05:16:51.391Z,88.83
2023-03-11T05:18:44.750Z,88.79
2023-03-11T05:20:39.435Z,88.85
2023-03-11T05:22:32.591Z,88.62
2023-03-11T05:24:26.363Z,88.70
2023-03-11T05:26:19.412Z,88.79
2023-03-11T05:28:13.281Z,89.02
2023-03-11T05:30:11.153Z,88.95
2023-03-11T05:32:05.521Z,89.10
2023-03-11T05:33:58.574Z,89.19
2023-03-11T05:35:52.125Z,89.22
2023-03-11T05:37:45.700Z,89.26
2023-03-11T05:39:38.960Z,89.30
2023-03-11T05:41:32.328Z,89.42
2023-03-11T05:43:25.884Z,89.29
2023-03-11T05:45:20.465Z,89.44
2023-03-11T05:47:14.130Z,89.43
2023-03-11T05:49:07.386Z,89.54
2023-03-11T05:51:00.457Z,89.60
2023-03-11T05:52:53.592Z,89.66
2023-03-11T05:54:51.154Z,89.68
2023-03-11T05:56:46.563Z,89.57
2023-03-11T05:58:39.606Z,89.67
2023-03-11T06:00:32.650Z,89.70
2023-03-11T06:02:26.942Z,89.94
2023-03-11T06:04:21.518Z,89.97
2023-03-11T06:06:14.986Z,90.14
2023-03-11T06:08:08.230Z,89.99
2023-03-11T06:10:01.795Z,90.18
2023-03-11T06:11:55.259Z,90.36
2023-03-11T06:13:53.426Z,90.45
2023-03-11T06:15:46.483Z,90.42
2023-03-11T06:17:40.073Z,90.58
2023-03-11T06:19:33.401Z,90.54
2023-03-11T06:21:27.164Z,90.52
2023-03-11T06:23:20.416Z,90.42
2023-03-11T06:25:13.568Z,90.55
2023-03-11T06:27:09.390Z,90.55
2023-03-11T06:29:02.956Z,90.49
2023-03-11T06:30:58.852Z,90.58
2023-03-11T06:32:51.838Z,90.65
2023-03-11T06:34:45.378Z,90.69
2023-03-11T06:36:38.900Z,90.75
2023-03-11T06:38:33.733Z,90.70
2023-03-11T06:40:27.701Z,90.75
2023-03-11T06:42:23.961Z,90.80
2023-03-11T06:44:17.799Z,90.62
2023-03-11T06:46:13.133Z,90.74
2023-03-11T06:48:06.555Z,90.82
2023-03-11T06:50:06.375Z,90.67
2023-03-11T06:51:59.930Z,90.88
2023-03-11T06:53:53.904Z,90.76
2023-03-11T06:56:18.085Z,90.79
2023-03-11T06:58:14.513Z,90.85
2023-03-11T07:00:12.569Z,90.64
2023-03-11T07:02:13.535Z,90.76
2023-03-11T07:04:07.743Z,90.72
2023-03-11T07:06:03.964Z,90.39
2023-03-11T07:07:58.511Z,90.40
2023-03-11T07:09:55.965Z,90.72
2023-03-11T07:11:49.217Z,90.89
2023-03-11T07:13:47.901Z,90.91
2023-03-11T07:15:41.053Z,91.05
2023-03-11T07:17:34.313Z,90.98
2023-03-11T07:19:28.382Z,90.88
2023-03-11T07:21:23.585Z,90.80
2023-03-11T07:23:16.761Z,90.93
2023-03-11T07:25:10.403Z,90.74
2023-03-11T07:27:03.569Z,90.86
2023-03-11T07:28:57.532Z,90.84
2023-03-11T07:30:51.245Z,90.96
2023-03-11T07:32:44.566Z,90.77
2023-03-11T07:34:37.908Z,90.81
2023-03-11T07:36:31.982Z,90.69
2023-03-11T07:38:25.561Z,90.63
2023-03-11T07:40:18.904Z,90.66
2023-03-11T07:42:12.057Z,90.92
2023-03-11T07:44:05.420Z,90.88
2023-03-11T07:46:05.851Z,90.91
2023-03-11T07:47:58.784Z,90.94
2023-03-11T07:49:52.041Z,90.91
2023-03-11T07:51:45.292Z,90.84
2023-03-11T07:53:40.616Z,90.80
2023-03-11T07:55:34.370Z,90.44
2023-03-11T07:57:27.732Z,90.50
2023-03-11T07:59:20.774Z,90.55
2023-03-11T08:01:17.326Z,90.41
2023-03-11T08:03:10.627Z,90.52
2023-03-11T08:05:04.018Z,90.39
2023-03-11T08:06:57.279Z,90.34
2023-03-11T08:08:51.574Z,90.38
2023-03-11T08:10:44.566Z,90.37
2023-03-11T08:12:37.961Z,90.20
2023-03-11T08:14:30.911Z,90.09
2023-03-11T08:16:25.204Z,89.85
2023-03-11T08:18:18.349Z,89.79
2023-03-11T08:20:12.222Z,89.80
2023-03-11T08:22:05.475Z,89.72
2023-03-11T08:24:01.008Z,89.70
2023-03-11T08:25:54.335Z,89.95
2023-03-11T08:27:48.309Z,89.81
2023-03-11T08:29:41.674Z,89.74
2023-03-11T08:31:35.719Z,89.94
2023-03-11T08:33:29.004Z,90.14
2023-03-11T08:35:22.350Z,90.15
2023-03-11T08:37:15.819Z,90.10
2023-03-11T08:39:09.579Z,89.86
2023-03-11T08:41:03.347Z,90.11
2023-03-11T08:42:57.021Z,90.05
2023-03-11T08:44:50.281Z,90.18
2023-03-11T08:46:43.783Z,90.28
2023-03-11T08:48:38.024Z,90.19
2023-03-11T08:50:33.468Z,90.20
2023-03-11T08:52:28.106Z,90.21
2023-03-11T08:54:21.152Z,90.14
2023-03-11T08:56:14.613Z,90.15
2023-03-11T08:58:07.866Z,90.21
2023-03-11T09:00:00.872Z,90.24
2023-03-11T09:01:53.974Z,90.06
2023-03-11T09:03:47.559Z,90.10
2023-03-11T09:05:40.965Z,90.20
2023-03-11T09:07:35.007Z,89.91
2023-03-11T09:09:28.627Z,89.38
2023-03-11T09:11:22.851Z,89.20
2023-03-11T09:13:15.825Z,88.77
2023-03-11T09:15:10.339Z,88.89
2023-03-11T09:17:04.206Z,88.75
2023-03-11T09:19:00.419Z,88.19
2023-03-11T09:20:58.438Z,88.53
2023-03-11T09:22:52.981Z,88.76
2023-03-11T09:24:53.004Z,88.99
2023-03-11T09:26:46.361Z,89.23
2023-03-11T09:28:40.430Z,89.27
2023-03-11T09:30:33.586Z,88.77
2023-03-11T09:32:26.873Z,88.54
2023-03-11T09:34:20.305Z,88.70
2023-03-11T09:36:16.025Z,89.10
2023-03-11T09:38:25.197Z,88.94
2023-03-11T09:40:23.694Z,88.79
2023-03-11T09:42:17.212Z,88.92
2023-03-11T09:44:19.864Z,88.48
2023-03-11T09:46:22.101Z,88.63
2023-03-11T09:48:33.913Z,88.05
2023-03-11T09:50:32.799Z,88.16
2023-03-11T09:52:38.150Z,87.41
2023-03-11T09:54:37.378Z,87.83
2023-03-11T09:56:31.626Z,88.42
2023-03-11T09:58:47.409Z,88.04
2023-03-11T10:00:41.273Z,87.88
2023-03-11T10:02:36.854Z,88.15
2023-03-11T10:04:44.984Z,87.90
2023-03-11T10:06:39.981Z,87.31
2023-03-11T10:09:03.258Z,87.16
2023-03-11T10:11:22.627Z,87.28
2023-03-11T10:13:25.691Z,87.19
2023-03-11T10:15:30.932Z,86.52
2023-03-11T10:17:33.142Z,85.46
2023-03-11T10:19:41.607Z,85.49
2023-03-11T10:22:02.713Z,86.05
2023-03-11T10:24:07.332Z,84.90
2023-03-11T10:26:10.826Z,85.12
2023-03-11T10:28:18.956Z,85.41
2023-03-11T10:30:34.002Z,85.32
2023-03-11T10:32:51.054Z,84.86
2023-03-11T10:34:49.635Z,85.49
2023-03-11T10:36:53.089Z,85.82
2023-03-11T10:38:48.401Z,86.02
2023-03-11T10:40:44.007Z,86.09
2023-03-11T10:42:38.332Z,85.81
2023-03-11T10:44:35.556Z,85.96
2023-03-11T10:46:29.196Z,86.55
2023-03-11T10:48:24.451Z,86.58
2023-03-11T10:50:19.851Z,86.42
2023-03-11T10:52:14.080Z,86.33
2023-03-11T10:54:07.044Z,86.66
2023-03-11T10:56:00.495Z,86.90
2023-03-11T10:58:05.724Z,87.17
2023-03-11T11:00:01.401Z,87.84
2023-03-11T11:02:23.899Z,87.58
2023-03-11T11:04:31.102Z,87.92
2023-03-11T11:06:32.647Z,87.84
2023-03-11T11:08:25.787Z,87.10
2023-03-11T11:10:23.742Z,86.88
2023-03-11T11:12:21.394Z,86.71
2023-03-11T11:14:14.594Z,86.77
2023-03-11T11:16:16.744Z,86.92
2023-03-11T11:18:24.274Z,87.02
2023-03-11T11:20:20.017Z,86.74
2023-03-11T11:22:18.087Z,86.83
2023-03-11T11:24:29.870Z,87.14
2023-03-11T11:26:27.703Z,86.43
2023-03-11T11:28:45.816Z,86.57
2023-03-11T11:30:56.569Z,86.53
2023-03-11T11:32:53.745Z,86.55
2023-03-11T11:35:14.783Z,85.77
2023-03-11T11:37:13.335Z,85.46
2023-03-11T11:39:16.044Z,85.29
2023-03-11T11:41:14.609Z,85.34
2023-03-11T11:43:42.493Z,85.62
2023-03-11T11:45:42.372Z,85.87
2023-03-11T11:47:38.015Z,86.09
2023-03-11T11:49:37.133Z,86.52
2023-03-11T11:51:35.822Z,86.55
2023-03-11T11:54:17.773Z,86.05
2023-03-11T11:56:11.249Z,85.95
2023-03-11T11:58:09.879Z,85.72
2023-03-11T12:00:06.783Z,84.93
2023-03-11T12:02:23.056Z,85.44
2023-03-11T12:04:50.825Z,85.37
2023-03-11T12:07:14.812Z,85.63
2023-03-11T12:09:32.646Z,85.69
2023-03-11T12:11:38.376Z,85.28
2023-03-11T12:14:02.357Z,85.15
2023-03-11T12:16:11.349Z,85.02
2023-03-11T12:18:15.343Z,85.24
2023-03-11T12:20:38.545Z,85.52
2023-03-11T12:22:51.572Z,85.93
2023-03-11T12:25:03.062Z,85.53
2023-03-11T12:27:00.657Z,85.66
2023-03-11T12:29:23.044Z,85.87
2023-03-11T12:31:16.982Z,85.90
2023-03-11T12:33:23.584Z,84.24
2023-03-11T12:35:28.242Z,84.32
2023-03-11T12:37:24.473Z,83.37
2023-03-11T12:39:25.165Z,83.50
2023-03-11T12:41:39.778Z,83.38
2023-03-11T12:43:34.306Z,82.90
2023-03-11T12:45:53.568Z,83.12
2023-03-11T12:47:53.971Z,83.10
2023-03-11T12:49:55.315Z,83.27
2023-03-11T12:52:11.694Z,83.27
2023-03-11T12:54:35.710Z,83.32
2023-03-11T12:56:44.942Z,83.52
2023-03-11T12:59:07.996Z,82.91
2023-03-11T13:01:22.889Z,81.47
2023-03-11T13:03:32.743Z,80.06
2023-03-11T13:06:00.671Z,79.35
2023-03-11T13:08:01.118Z,78.06
2023-03-11T13:10:12.375Z,76.69
2023-03-11T13:12:44.040Z,77.32
2023-03-11T13:14:37.456Z,77.91
2023-03-11T13:16:30.384Z,78.08
2023-03-11T13:18:26.671Z,78.87
2023-03-11T13:20:45.086Z,77.70
2023-03-11T13:22:43.488Z,78.52
2023-03-11T13:24:36.363Z,77.90
2023-03-11T13:26:34.549Z,78.24
2023-03-11T13:28:46.502Z,78.06
2023-03-11T13:30:46.877Z,76.95
2023-03-11T13:32:55.470Z,77.20
2023-03-11T13:35:22.997Z,76.11
2023-03-11T13:37:30.996Z,76.29
2023-03-11T13:39:33.063Z,77.08
2023-03-11T13:41:40.755Z,76.68
2023-03-11T13:43:35.235Z,76.37
2023-03-11T13:45:35.838Z,77.61
2023-03-11T13:47:30.454Z,76.94
2023-03-11T13:49:29.032Z,76.07
2023-03-11T13:51:44.179Z,75.42
2023-03-11T13:53:47.900Z,75.81
2023-03-11T13:55:48.299Z,75.83
2023-03-11T13:57:53.458Z,75.65
2023-03-11T13:59:52.755Z,75.43
2023-03-11T14:02:08.551Z,75.51
2023-03-11T14:04:01.688Z,74.82
2023-03-11T14:06:04.064Z,75.67
2023-03-11T14:08:21.485Z,74.74
2023-03-11T14:10:28.875Z,72.60
2023-03-11T14:12:21.785Z,73.85
2023-03-11T14:14:49.690Z,74.33
2023-03-11T14:16:46.674Z,73.01
2023-03-11T14:18:44.998Z,73.19
2023-03-11T14:20:38.795Z,73.37
2023-03-11T14:22:32.253Z,73.35
2023-03-11T14:24:28.606Z,74.20
2023-03-11T14:26:24.673Z,73.62
2023-03-11T14:28:21.823Z,73.88
2023-03-11T14:30:21.571Z,73.33
2023-03-11T14:32:25.440Z,72.48
2023-03-11T14:34:27.831Z,71.68
2023-03-11T14:36:21.578Z,72.49
2023-03-11T14:38:26.426Z,71.56
2023-03-11T14:40:32.896Z,70.73
2023-03-11T14:42:38.919Z,68.89
2023-03-11T14:44:36.270Z,69.22
2023-03-11T14:46:30.034Z,70.49
2023-03-11T14:48:32.917Z,70.28
2023-03-11T14:50:29.087Z,70.30
2023-03-11T14:52:33.554Z,68.84
2023-03-11T14:54:30.599Z,67.90
2023-03-11T14:56:26.689Z,67.47
2023-03-11T14:58:43.541Z,67.71
2023-03-11T15:00:42.713Z,67.72
2023-03-11T15:02:44.885Z,68.68
2023-03-11T15:04:40.131Z,68.34
2023-03-11T15:06:35.142Z,68.42
2023-03-11T15:08:31.676Z,68.04
2023-03-11T15:10:24.973Z,67.61
2023-03-11T15:12:35.848Z,67.47
2023-03-11T15:14:31.984Z,67.93
2023-03-11T15:16:29.331Z,67.56
2023-03-11T15:18:25.420Z,66.72
2023-03-11T15:20:37.119Z,67.57
2023-03-11T15:22:37.717Z,67.28
2023-03-11T15:24:33.476Z,67.57
2023-03-11T15:26:29.981Z,67.68
2023-03-11T15:28:24.422Z,66.68
2023-03-11T15:30:30.298Z,68.15
2023-03-11T15:32:36.752Z,68.60
2023-03-11T15:34:32.110Z,69.19
2023-03-11T15:36:39.512Z,69.02
2023-03-11T15:38:32.544Z,69.68
2023-03-11T15:40:43.912Z,69.71
2023-03-11T15:42:38.554Z,70.02
2023-03-11T15:44:41.455Z,70.56
2023-03-11T15:46:34.876Z,71.30
2023-03-11T15:48:30.125Z,71.81
2023-03-11T15:50:40.132Z,71.63
2023-03-11T15:52:36.175Z,71.70
2023-03-11T15:54:29.681Z,71.52
2023-03-11T15:56:25.191Z,71.34
2023-03-11T15:58:21.108Z,71.44
2023-03-11T16:00:16.683Z,71.72
2023-03-11T16:02:22.758Z,71.83
2023-03-11T16:04:18.691Z,72.01
2023-03-11T16:06:11.840Z,72.37
2023-03-11T16:08:05.011Z,73.07
2023-03-11T16:09:58.146Z,72.82
2023-03-11T16:11:51.094Z,72.76
2023-03-11T16:13:44.363Z,72.97
2023-03-11T16:15:38.201Z,73.16
2023-03-11T16:17:46.753Z,72.83
2023-03-11T16:19:43.263Z,72.91
2023-03-11T16:21:50.308Z,73.24
2023-03-11T16:23:51.551Z,73.41
2023-03-11T16:25:46.405Z,73.52
2023-03-11T16:27:39.326Z,73.74
2023-03-11T16:29:33.714Z,74.05
2023-03-11T16:31:28.332Z,74.48
2023-03-11T16:33:21.354Z,74.81
2023-03-11T16:35:15.316Z,75.09
2023-03-11T16:37:09.088Z,75.18
2023-03-11T16:39:03.662Z,75.31
2023-03-11T16:40:59.554Z,75.50
2023-03-11T16:42:57.948Z,75.80
2023-03-11T16:44:50.950Z,75.67
2023-03-11T16:46:44.005Z,75.69
2023-03-11T16:48:37.018Z,75.84
2023-03-11T16:50:30.031Z,75.94
2023-03-11T16:52:23.675Z,76.04
2023-03-11T16:54:16.784Z,76.13
2023-03-11T16:56:09.744Z,76.11
2023-03-11T16:58:02.782Z,76.40
2023-03-11T16:59:55.729Z,76.37
2023-03-11T17:01:48.720Z,76.60
2023-03-11T17:03:43.570Z,76.76
2023-03-11T17:05:36.908Z,76.93
2023-03-11T17:07:33.474Z,77.14
2023-03-11T17:09:26.415Z,77.20
2023-03-11T17:11:22.496Z,77.29
2023-03-11T17:13:18.826Z,77.42
2023-03-11T17:15:12.982Z,77.45
2023-03-11T17:17:08.071Z,77.44
2023-03-11T17:19:01.904Z,77.59
2023-03-11T17:20:54.959Z,77.67
2023-03-11T17:22:48.998Z,77.72
2023-03-11T17:24:44.954Z,77.79
2023-03-11T17:26:40.095Z,77.92
2023-03-11T17:28:37.713Z,77.91
2023-03-11T17:30:37.098Z,78.01
2023-03-11T17:32:31.809Z,78.05
2023-03-11T17:34:25.708Z,78.16
2023-03-11T17:36:20.150Z,78.33
2023-03-11T17:38:15.428Z,78.25
2023-03-11T17:40:10.194Z,78.26
2023-03-11T17:42:03.619Z,78.48
2023-03-11T17:43:56.754Z,78.50
2023-03-11T17:45:50.623Z,78.49
2023-03-11T17:47:44.392Z,78.51
2023-03-11T17:49:37.544Z,78.50
2023-03-11T17:51:30.595Z,78.60
2023-03-11T17:53:23.851Z,78.45
2023-03-11T17:55:16.945Z,78.48
2023-03-11T17:57:10.271Z,78.53
2023-03-11T17:59:03.726Z,78.38
2023-03-11T18:00:56.764Z,78.35
2023-03-11T18:02:51.604Z,78.43
2023-03-11T18:04:52.114Z,78.33
2023-03-11T18:06:45.539Z,78.21
2023-03-11T18:08:38.596Z,78.22
2023-03-11T18:10:31.954Z,78.14
2023-03-11T18:12:25.516Z,78.05
2023-03-11T18:14:19.786Z,78.06
2023-03-11T18:16:16.570Z,78.05
2023-03-11T18:18:09.572Z,77.95
2023-03-11T18:20:03.757Z,77.62
2023-03-11T18:21:57.576Z,77.75
2023-03-11T18:23:55.381Z,77.69
2023-03-11T18:25:52.733Z,77.76
2023-03-11T18:27:45.989Z,77.57
2023-03-11T18:29:39.248Z,77.64
2023-03-11T18:31:33.229Z,77.65
2023-03-11T18:33:26.373Z,77.54
2023-03-11T18:35:19.421Z,77.41
2023-03-11T18:37:12.479Z,77.45
2023-03-11T18:39:06.958Z,77.30
2023-03-11T18:41:00.939Z,77.42
2023-03-11T18:42:54.595Z,77.43
2023-03-11T18:44:47.757Z,77.26
2023-03-11T18:46:42.539Z,77.58
2023-03-11T18:48:35.805Z,77.62
2023-03-11T18:50:28.850Z,77.42
2023-03-11T18:52:22.828Z,77.44
2023-03-11T18:54:15.766Z,77.60
2023-03-11T18:56:12.260Z,77.61
2023-03-11T18:58:09.454Z,77.64
2023-03-11T19:00:03.929Z,77.60
2023-03-11T19:01:56.980Z,77.62
2023-03-11T19:03:55.405Z,77.78
2023-03-11T19:05:50.890Z,77.67
2023-03-11T19:07:44.634Z,77.75
2023-03-11T19:09:37.690Z,77.90
2023-03-11T19:11:30.940Z,78.00
2023-03-11T19:13:24.234Z,78.10
2023-03-11T19:15:18.987Z,78.30
2023-03-11T19:17:16.450Z,78.41
2023-03-11T19:19:11.671Z,78.57
2023-03-11T19:21:06.951Z,78.61
2023-03-11T19:23:00.237Z,78.80
2023-03-11T19:24:54.078Z,78.84
2023-03-11T19:26:47.699Z,78.89
2023-03-11T19:28:46.710Z,78.98
2023-03-11T19:30:42.039Z,79.10
2023-03-11T19:32:36.103Z,79.03
2023-03-11T19:34:35.211Z,79.06
2023-03-11T19:36:31.794Z,79.08
2023-03-11T19:38:26.017Z,79.12
2023-03-11T19:40:20.895Z,79.04
2023-03-11T19:42:20.430Z,79.11
2023-03-11T19:44:20.102Z,79.18
2023-03-11T19:46:21.335Z,79.23
2023-03-11T19:48:19.936Z,79.34
2023-03-11T19:50:17.477Z,79.48
2023-03-11T19:52:15.373Z,79.76
2023-03-11T19:54:16.123Z,79.83
2023-03-11T19:56:14.165Z,79.90
2023-03-11T19:58:09.627Z,80.04
2023-03-11T20:00:08.293Z,80.09
2023-03-11T20:02:08.426Z,80.20
2023-03-11T20:04:06.599Z,80.22
2023-03-11T20:06:06.712Z,80.38
2023-03-11T20:08:04.022Z,80.53
2023-03-11T20:10:02.030Z,80.60
2023-03-11T20:11:59.552Z,80.53
2023-03-11T20:13:57.794Z,80.57
2023-03-11T20:15:55.136Z,80.57
2023-03-11T20:17:53.271Z,80.61
2023-03-11T20:19:52.626Z,80.56
2023-03-11T20:21:51.372Z,80.57
2023-03-11T20:23:50.956Z,80.62
2023-03-11T20:25:55.424Z,80.55
2023-03-11T20:28:02.491Z,80.58
2023-03-11T20:30:01.310Z,80.54
2023-03-11T20:31:59.561Z,80.62
2023-03-11T20:34:03.009Z,80.54
2023-03-11T20:36:06.916Z,80.68
2023-03-11T20:38:05.402Z,80.72
2023-03-11T20:40:02.795Z,80.69
2023-03-11T20:41:58.051Z,80.79
2023-03-11T20:43:58.110Z,80.67
2023-03-11T20:45:56.252Z,80.70
2023-03-11T20:47:54.180Z,80.65
2023-03-11T20:49:47.280Z,80.62
2023-03-11T20:51:42.837Z,80.67
2023-03-11T20:53:41.132Z,80.59
2023-03-11T20:55:42.754Z,80.65
2023-03-11T20:57:42.437Z,80.70
2023-03-11T20:59:40.262Z,80.58
2023-03-11T21:01:38.233Z,80.51
2023-03-11T21:03:36.774Z,80.43
2023-03-11T21:05:37.120Z,80.33
2023-03-11T21:07:31.460Z,80.26
2023-03-11T21:09:27.898Z,80.17
2023-03-11T21:11:26.533Z,80.11
2023-03-11T21:13:24.110Z,79.96
2023-03-11T21:15:22.121Z,80.04
2023-03-11T21:17:19.288Z,80.02
2023-03-11T21:19:17.536Z,80.04
2023-03-11T21:21:16.914Z,80.03
2023-03-11T21:23:14.409Z,79.91
2023-03-11T21:25:10.933Z,79.77
2023-03-11T21:27:06.770Z,79.79
2023-03-11T21:29:04.583Z,79.77
2023-03-11T21:31:29.475Z,79.64
2023-03-11T21:33:29.115Z,79.51
2023-03-11T21:35:27.099Z,79.42
2023-03-11T21:37:24.758Z,79.37
2023-03-11T21:39:22.098Z,79.38
2023-03-11T21:41:21.159Z,79.39
2023-03-11T21:43:21.752Z,79.33
2023-03-11T21:45:19.747Z,79.30
2023-03-11T21:47:15.683Z,79.28
2023-03-11T21:49:14.451Z,79.25
2023-03-11T21:51:14.705Z,79.10
2023-03-11T21:53:11.298Z,79.01
2023-03-11T21:55:06.507Z,79.07
2023-03-11T21:57:01.882Z,79.11
2023-03-11T21:58:57.627Z,79.11
2023-03-11T22:00:54.095Z,79.19
2023-03-11T22:02:49.483Z,79.17
2023-03-11T22:04:44.280Z,79.11
2023-03-11T22:06:41.141Z,79.13
2023-03-11T22:08:34.880Z,79.23
2023-03-11T22:10:27.989Z,79.26
2023-03-11T22:12:21.286Z,79.33
2023-03-11T22:14:14.637Z,79.14
2023-03-11T22:16:08.813Z,79.31
2023-03-11T22:18:01.951Z,79.21
2023-03-11T22:19:54.992Z,79.14
2023-03-11T22:21:49.291Z,79.20
2023-03-11T22:23:43.738Z,79.19
2023-03-11T22:25:36.982Z,79.13
2023-03-11T22:27:30.646Z,79.21
2023-03-11T22:29:23.700Z,79.36
2023-03-11T22:31:19.406Z,79.39
2023-03-11T22:33:13.547Z,79.39
2023-03-11T22:35:08.765Z,79.45
2023-03-11T22:37:06.126Z,79.39
2023-03-11T22:39:10.721Z,79.39
2023-03-11T22:41:08.137Z,79.42
2023-03-11T22:43:05.017Z,79.54
2023-03-11T22:44:59.204Z,79.50
2023-03-11T22:46:55.819Z,79.56
2023-03-11T22:48:54.561Z,79.64
2023-03-11T22:50:49.029Z,79.70
2023-03-11T22:52:48.296Z,79.66
2023-03-11T22:54:44.061Z,79.54
2023-03-11T22:56:45.635Z,79.59
2023-03-11T22:58:40.067Z,79.65
2023-03-11T23:00:37.312Z,79.72
2023-03-11T23:02:34.156Z,79.73
2023-03-11T23:04:28.783Z,79.78
2023-03-11T23:06:22.911Z,79.72
2023-03-11T23:08:17.263Z,79.74
2023-03-11T23:10:13.502Z,79.76
2023-03-11T23:12:10.636Z,79.75
2023-03-11T23:14:04.158Z,79.66
2023-03-11T23:15:57.096Z,79.84
2023-03-11T23:17:50.353Z,79.81
2023-03-11T23:19:43.281Z,79.78
2023-03-11T23:21:36.658Z,79.88
2023-03-11T23:23:29.591Z,79.97
2023-03-11T23:25:22.597Z,80.04
2023-03-11T23:27:15.621Z,79.99
2023-03-11T23:29:08.655Z,80.17
2023-03-11T23:31:04.495Z,80.02
2023-03-11T23:32:58.404Z,80.05
2023-03-11T23:34:51.440Z,80.12
2023-03-11T23:36:44.446Z,80.18
2023-03-11T23:38:38.496Z,80.22
2023-03-11T23:40:32.251Z,80.15
2023-03-11T23:42:26.391Z,80.21
2023-03-11T23:44:19.634Z,80.29
2023-03-11T23:46:13.280Z,80.28
2023-03-11T23:48:06.536Z,80.24
2023-03-11T23:49:59.594Z,80.34
2023-03-11T23:51:53.661Z,80.41
2023-03-11T23:53:46.606Z,80.40
2023-03-11T23:55:39.663Z,80.42
2023-03-11T23:57:37.322Z,80.49
2023-03-11T23:59:30.218Z,80.61
